Time;durP1;ratioP1;P1;durP2;ratioP2;P2;SDS_P1;SDS_P2;PMS_P1;PMS_P2;Temp;Humidity;BMP_temperature;BMP_pressure;BME280_temperature;BME280_humidity;BME280_pressure;Samples;Min_cycle;Max_cycle;Signal;HPM_P1;HPM_P2
2023/10/06 00:00:53;;;;;;;14.77;7.10;;;;;;;-148.88;100.00;-17125.47;4974636;28;20054;-73
2023/10/06 00:03:20;;;;;;;13.40;7.25;;;;;;;-148.88;100.00;-17125.47;4974530;28;20463;-73
2023/10/06 00:05:49;;;;;;;14.88;6.90;;;;;;;-148.88;100.00;-17125.47;4974451;28;20023;-73
2023/10/06 00:08:32;;;;;;;15.15;7.43;;;;;;;-148.88;100.00;-17125.47;4974234;28;20042;-73
2023/10/06 00:11:10;;;;;;;12.55;7.70;;;;;;;-148.88;100.00;-17125.47;4974270;28;20101;-73
2023/10/06 00:13:37;;;;;;;11.52;7.88;;;;;;;-148.88;100.00;-17125.47;4974518;28;20061;-73
2023/10/06 00:16:05;;;;;;;12.02;7.10;;;;;;;-148.88;100.00;-17125.47;4974095;28;20046;-73
2023/10/06 00:18:36;;;;;;;13.30;7.88;;;;;;;-148.88;100.00;-17125.47;4972596;28;20038;-73
2023/10/06 00:21:06;;;;;;;12.75;7.40;;;;;;;-148.88;100.00;-17125.47;4972897;28;20038;-73
2023/10/06 00:23:35;;;;;;;15.05;8.10;;;;;;;-148.88;100.00;-17125.47;4972776;28;20102;-73
2023/10/06 00:26:03;;;;;;;11.85;8.02;;;;;;;-148.88;100.00;-17125.47;4974076;28;20050;-73
2023/10/06 00:28:32;;;;;;;14.75;8.25;;;;;;;-148.88;100.00;-17125.47;4974219;28;20058;-73
2023/10/06 00:31:06;;;;;;;16.55;9.27;;;;;;;-148.88;100.00;-17125.47;4973277;28;20027;-74
2023/10/06 00:33:37;;;;;;;17.73;8.95;;;;;;;-148.88;100.00;-17125.47;4973895;28;20027;-74
2023/10/06 00:36:29;;;;;;;18.35;10.05;;;;;;;-148.88;100.00;-17125.47;4973874;28;20089;-73
2023/10/06 00:38:53;;;;;;;19.42;11.43;;;;;;;-148.88;100.00;-17125.47;4973722;28;20030;-73
2023/10/06 00:41:20;;;;;;;20.92;12.50;;;;;;;-148.88;100.00;-17125.47;4973618;28;20030;-73
2023/10/06 00:43:46;;;;;;;24.20;13.45;;;;;;;-148.88;100.00;-17125.47;4973651;28;20118;-73
2023/10/06 00:46:14;;;;;;;23.45;14.23;;;;;;;-148.88;100.00;-17125.47;4973782;28;20022;-73
2023/10/06 00:48:44;;;;;;;26.55;14.50;;;;;;;-148.88;100.00;-17125.47;4973376;28;20081;-73
2023/10/06 00:51:26;;;;;;;26.98;15.55;;;;;;;-148.88;100.00;-17125.47;4973513;28;20391;-73
2023/10/06 00:53:56;;;;;;;27.67;16.33;;;;;;;-148.88;100.00;-17125.47;4973585;28;20026;-74
2023/10/06 00:56:23;;;;;;;30.00;16.15;;;;;;;-148.88;100.00;-17125.47;4973543;28;20089;-73
2023/10/06 00:58:49;;;;;;;26.38;16.48;;;;;;;-148.88;100.00;-17125.47;4972007;28;20069;-73
2023/10/06 01:01:17;;;;;;;27.88;16.70;;;;;;;-148.88;100.00;-17125.47;4972049;28;20050;-73
2023/10/06 01:04:00;;;;;;;30.38;16.58;;;;;;;-148.88;100.00;-17125.47;4973569;28;20483;-73
2023/10/06 01:06:33;;;;;;;27.65;16.27;;;;;;;-148.88;100.00;-17125.47;4973836;28;20027;-73
2023/10/06 01:09:14;;;;;;;28.27;17.48;;;;;;;-148.88;100.00;-17125.47;4973567;28;20114;-73
2023/10/06 01:11:40;;;;;;;31.17;17.48;;;;;;;-148.88;100.00;-17125.47;4973700;28;20030;-73
2023/10/06 01:14:07;;;;;;;27.33;16.35;;;;;;;-148.88;100.00;-17125.47;4971980;28;20407;-73
2023/10/06 01:16:35;;;;;;;26.35;15.45;;;;;;;-148.88;100.00;-17125.47;4973170;28;20025;-73
2023/10/06 01:19:14;;;;;;;26.67;16.15;;;;;;;-148.88;100.00;-17125.47;4972884;28;20398;-73
2023/10/06 01:21:47;;;;;;;23.42;15.60;;;;;;;-148.88;100.00;-17125.47;4972018;28;20170;-73
2023/10/06 01:24:24;;;;;;;28.00;15.23;;;;;;;-148.88;100.00;-17125.47;4973520;28;20031;-73
2023/10/06 01:26:51;;;;;;;24.25;13.95;;;;;;;-148.88;100.00;-17125.47;4973192;28;20023;-73
2023/10/06 01:29:17;;;;;;;24.13;11.73;;;;;;;-148.88;100.00;-17125.47;4973016;28;20031;-73
2023/10/06 01:31:43;;;;;;;18.88;10.73;;;;;;;-148.88;100.00;-17125.47;4973081;28;20027;-73
2023/10/06 01:34:10;;;;;;;17.40;10.55;;;;;;;-148.88;100.00;-17125.47;4973132;28;20101;-73
2023/10/06 01:36:36;;;;;;;16.63;9.38;;;;;;;-148.88;100.00;-17125.47;4972975;28;20026;-73
2023/10/06 01:39:04;;;;;;;18.85;8.75;;;;;;;-148.88;100.00;-17125.47;4973121;28;20066;-73
2023/10/06 01:41:34;;;;;;;14.07;8.68;;;;;;;-148.88;100.00;-17125.47;4972137;28;20082;-74
2023/10/06 01:44:01;;;;;;;14.55;8.20;;;;;;;-148.88;100.00;-17125.47;4973086;28;20027;-74
2023/10/06 01:46:27;;;;;;;12.85;8.15;;;;;;;-148.88;100.00;-17125.47;4971963;28;20085;-74
2023/10/06 01:48:53;;;;;;;13.65;7.28;;;;;;;-148.88;100.00;-17125.47;4971961;28;20149;-73
2023/10/06 01:51:19;;;;;;;11.45;7.50;;;;;;;-148.88;100.00;-17125.47;4971342;28;20539;-73
2023/10/06 01:53:44;;;;;;;12.55;7.25;;;;;;;-148.88;100.00;-17125.47;4972804;28;20027;-74
2023/10/06 01:56:10;;;;;;;13.98;6.93;;;;;;;-148.88;100.00;-17125.47;4972703;28;20118;-73
2023/10/06 01:58:36;;;;;;;14.48;6.30;;;;;;;-148.88;100.00;-17125.47;4971177;28;20514;-73
2023/10/06 02:01:05;;;;;;;15.60;7.00;;;;;;;-148.88;100.00;-17125.47;4974318;28;20038;-73
2023/10/06 02:03:37;;;;;;;11.57;6.50;;;;;;;-148.88;100.00;-17125.47;4975244;28;20105;-73
2023/10/06 02:06:03;;;;;;;12.32;7.03;;;;;;;-148.88;100.00;-17125.47;4976654;28;20023;-73
2023/10/06 02:08:30;;;;;;;13.85;6.70;;;;;;;-148.88;100.00;-17125.47;4976417;28;20395;-73
2023/10/06 02:10:55;;;;;;;11.43;6.47;;;;;;;-148.88;100.00;-17125.47;4976708;28;20487;-73
2023/10/06 02:13:21;;;;;;;12.43;5.57;;;;;;;-148.88;100.00;-17125.47;4976646;28;20101;-73
2023/10/06 02:15:58;;;;;;;10.98;6.13;;;;;;;-148.88;100.00;-17125.47;4975116;28;20030;-73
2023/10/06 02:18:36;;;;;;;10.68;5.85;;;;;;;-148.88;100.00;-17125.47;4976472;28;20056;-73
2023/10/06 02:21:09;;;;;;;9.40;5.65;;;;;;;-148.88;100.00;-17125.47;4976462;28;20054;-74
2023/10/06 02:23:40;;;;;;;13.13;6.35;;;;;;;-148.88;100.00;-17125.47;4976478;28;20019;-73
2023/10/06 02:26:13;;;;;;;12.15;6.18;;;;;;;-148.88;100.00;-17125.47;4976338;28;20026;-73
2023/10/06 02:28:43;;;;;;;;;;;;;;;-148.88;100.00;-17125.47;4975070;28;20031;-73
2023/10/06 02:31:12;;;;;;;11.98;6.45;;;;;;;-148.88;100.00;-17125.47;4991311;28;19910;-73
2023/10/06 02:33:39;;;;;;;16.90;6.63;;;;;;;-148.88;100.00;-17125.47;4975993;28;20054;-73
2023/10/06 02:36:23;;;;;;;10.13;6.45;;;;;;;-148.88;100.00;-17125.47;4975970;28;20470;-73
2023/10/06 02:38:49;;;;;;;12.23;6.90;;;;;;;-148.88;100.00;-17125.47;4976082;28;20030;-73
2023/10/06 02:41:19;;;;;;;11.75;6.13;;;;;;;-148.88;100.00;-17125.47;4976168;28;20038;-73
2023/10/06 02:43:46;;;;;;;11.57;6.15;;;;;;;-148.88;100.00;-17125.47;4976259;28;20022;-73
2023/10/06 02:46:14;;;;;;;16.08;6.88;;;;;;;-148.88;100.00;-17125.47;4976362;28;20081;-73
2023/10/06 02:48:48;;;;;;;11.27;6.65;;;;;;;-148.88;100.00;-17125.47;4976058;28;20101;-73
2023/10/06 02:51:18;;;;;;;11.70;6.97;;;;;;;-148.88;100.00;-17125.47;4976273;28;20037;-73
2023/10/06 02:53:50;;;;;;;16.08;7.40;;;;;;;-148.88;100.00;-17125.47;4976506;28;20027;-73
2023/10/06 02:56:18;;;;;;;11.18;6.72;;;;;;;-148.88;100.00;-17125.47;4976123;28;20553;-73
2023/10/06 02:58:43;;;;;;;15.57;7.78;;;;;;;-148.88;100.00;-17125.47;4976204;28;20042;-74
2023/10/06 03:01:11;;;;;;;16.88;7.00;;;;;;;-148.88;100.00;-17125.47;4976281;28;20089;-74
2023/10/06 03:03:36;;;;;;;12.23;6.68;;;;;;;-148.88;100.00;-17125.47;4975843;28;20399;-73
2023/10/06 03:06:07;;;;;;;18.15;7.72;;;;;;;-148.88;100.00;-17125.47;4975865;28;20019;-73
2023/10/06 03:08:35;;;;;;;14.35;6.85;;;;;;;-148.88;100.00;-17125.47;4974523;28;20086;-73
2023/10/06 03:11:01;;;;;;;13.48;6.90;;;;;;;-148.88;100.00;-17125.47;4975909;28;20026;-73
2023/10/06 03:13:36;;;;;;;14.18;6.82;;;;;;;-148.88;100.00;-17125.47;4975052;28;20054;-73
2023/10/06 03:16:10;;;;;;;13.05;6.97;;;;;;;-148.88;100.00;-17125.47;4976215;28;20027;-73
2023/10/06 03:18:36;;;;;;;14.77;7.65;;;;;;;-148.88;100.00;-17125.47;4975693;28;20046;-73
2023/10/06 03:21:16;;;;;;;15.10;6.85;;;;;;;-148.88;100.00;-17125.47;4975697;28;20034;-73
2023/10/06 03:23:44;;;;;;;12.27;6.25;;;;;;;-148.88;100.00;-17125.47;4975923;28;20058;-73
2023/10/06 03:26:52;;;;;;;13.75;7.00;;;;;;;-148.88;100.00;-17125.47;4974190;28;20053;-73
2023/10/06 03:29:11;;;;;;;17.88;7.60;;;;;;;-148.88;100.00;-17125.47;4972514;28;20043;-73
2023/10/06 03:31:45;;;;;;;15.32;6.97;;;;;;;-148.88;100.00;-17125.47;4975594;28;20022;-73
2023/10/06 03:34:16;;;;;;;12.68;7.05;;;;;;;-148.88;100.00;-17125.47;4975582;28;20038;-74
2023/10/06 03:36:51;;;;;;;16.10;7.47;;;;;;;-148.88;100.00;-17125.47;4974238;28;20022;-73
2023/10/06 03:39:27;;;;;;;13.82;6.55;;;;;;;-148.88;100.00;-17125.47;4974079;28;20154;-73
2023/10/06 03:41:56;;;;;;;16.98;7.30;;;;;;;-148.88;100.00;-17125.47;4975624;28;20029;-73
2023/10/06 03:44:29;;;;;;;12.05;6.68;;;;;;;-148.88;100.00;-17125.47;4973989;28;20109;-73
2023/10/06 03:46:55;;;;;;;;;;;;;;;-148.88;100.00;-17125.47;4974394;28;20403;-73
2023/10/06 03:49:21;;;;;;;14.93;6.97;;;;;;;-148.88;100.00;-17125.47;4975072;28;19910;-73
2023/10/06 03:51:47;;;;;;;14.73;7.25;;;;;;;-148.88;100.00;-17125.47;4973910;28;20041;-73
2023/10/06 03:54:12;;;;;;;14.93;7.10;;;;;;;-148.88;100.00;-17125.47;4975121;28;20022;-73
2023/10/06 03:56:38;;;;;;;11.75;6.53;;;;;;;-148.88;100.00;-17125.47;4973745;28;20495;-73
2023/10/06 03:59:12;;;;;;;19.85;7.50;;;;;;;-148.88;100.00;-17125.47;4975035;28;20432;-73
2023/10/06 04:01:38;;;;;;;12.35;7.53;;;;;;;-148.88;100.00;-17125.47;4973640;28;20019;-73
2023/10/06 04:04:04;;;;;;;14.90;7.65;;;;;;;-148.88;100.00;-17125.47;4974951;28;20501;-73
2023/10/06 04:06:34;;;;;;;12.95;7.28;;;;;;;-148.88;100.00;-17125.47;4973526;28;20026;-73
2023/10/06 04:08:59;;;;;;;14.30;7.28;;;;;;;-148.88;100.00;-17125.47;4974903;28;20027;-73
2023/10/06 04:11:29;;;;;;;12.60;7.45;;;;;;;-148.88;100.00;-17125.47;4974964;28;20081;-73
2023/10/06 04:13:55;;;;;;;17.05;8.20;;;;;;;-148.88;100.00;-17125.47;4975121;28;20031;-73
2023/10/06 04:16:23;;;;;;;13.07;7.13;;;;;;;-148.88;100.00;-17125.47;4974554;28;20454;-73
2023/10/06 04:18:49;;;;;;;14.30;7.65;;;;;;;-148.88;100.00;-17125.47;4974617;28;20031;-73
2023/10/06 04:21:17;;;;;;;14.52;8.02;;;;;;;-148.88;100.00;-17125.47;4974465;28;20073;-73
2023/10/06 04:23:43;;;;;;;17.73;8.00;;;;;;;-148.88;100.00;-17125.47;4974227;28;20399;-73
2023/10/06 04:26:10;;;;;;;17.13;7.90;;;;;;;-148.88;100.00;-17125.47;4974152;28;20476;-73
2023/10/06 04:28:36;;;;;;;14.65;7.60;;;;;;;-148.88;100.00;-17125.47;4974244;28;20042;-73
2023/10/06 04:31:02;;;;;;;14.77;7.80;;;;;;;-148.88;100.00;-17125.47;4974392;28;20027;-73
2023/10/06 04:33:30;;;;;;;17.05;7.38;;;;;;;-148.88;100.00;-17125.47;4974242;28;20077;-73
2023/10/06 04:35:55;;;;;;;12.45;7.07;;;;;;;-148.88;100.00;-17125.47;4973491;28;20019;-73
2023/10/06 04:38:23;;;;;;;14.13;7.10;;;;;;;-148.88;100.00;-17125.47;4974195;28;20407;-73
2023/10/06 04:40:48;;;;;;;15.95;7.00;;;;;;;-148.88;100.00;-17125.47;4972963;28;20627;-73
2023/10/06 04:43:14;;;;;;;14.70;7.57;;;;;;;-148.88;100.00;-17125.47;4974177;28;20062;-73
2023/10/06 04:45:39;;;;;;;14.77;7.18;;;;;;;-148.88;100.00;-17125.47;4972821;28;20065;-73
2023/10/06 04:48:07;;;;;;;16.27;7.18;;;;;;;-148.88;100.00;-17125.47;4974249;28;20034;-73
2023/10/06 04:50:34;;;;;;;18.35;7.13;;;;;;;-148.88;100.00;-17125.47;4972954;28;20439;-73
2023/10/06 04:53:00;;;;;;;14.27;7.72;;;;;;;-148.88;100.00;-17125.47;4974016;28;20031;-73
2023/10/06 04:55:26;;;;;;;15.45;6.90;;;;;;;-148.88;100.00;-17125.47;4973842;28;20023;-73
2023/10/06 04:57:51;;;;;;;12.93;6.88;;;;;;;-148.88;100.00;-17125.47;4973992;28;20038;-73
2023/10/06 05:00:20;;;;;;;15.73;7.43;;;;;;;-148.88;100.00;-17125.47;4973753;28;20026;-73
2023/10/06 05:02:50;;;;;;;13.80;7.22;;;;;;;-148.88;100.00;-17125.47;4973924;28;20042;-73
2023/10/06 05:05:21;;;;;;;16.10;7.30;;;;;;;-148.88;100.00;-17125.47;4973759;28;20026;-73
2023/10/06 05:07:48;;;;;;;13.82;6.55;;;;;;;-148.88;100.00;-17125.47;4974068;28;20023;-73
2023/10/06 05:10:16;;;;;;;19.33;7.75;;;;;;;-148.88;100.00;-17125.47;4973745;28;20025;-73
2023/10/06 05:12:42;;;;;;;16.67;7.18;;;;;;;-148.88;100.00;-17125.47;4973822;28;20030;-73
2023/10/06 05:15:09;;;;;;;16.15;6.82;;;;;;;-148.88;100.00;-17125.47;4973676;28;20032;-73
2023/10/06 05:17:35;;;;;;;14.88;7.07;;;;;;;-148.88;100.00;-17125.47;4973646;28;20423;-74
2023/10/06 05:20:01;;;;;;;14.18;7.78;;;;;;;-148.88;100.00;-17125.47;4973480;28;20041;-73
2023/10/06 05:22:27;;;;;;;14.80;7.28;;;;;;;-148.88;100.00;-17125.47;4972349;28;20026;-73
2023/10/06 05:24:52;;;;;;;14.25;7.15;;;;;;;-148.88;100.00;-17125.47;4972465;28;20446;-73
2023/10/06 05:27:22;;;;;;;14.40;6.80;;;;;;;-148.88;100.00;-17125.47;4973938;28;20034;-73
2023/10/06 05:29:47;;;;;;;14.57;7.03;;;;;;;-148.88;100.00;-17125.47;4972271;28;20055;-73
2023/10/06 05:32:13;;;;;;;15.40;6.60;;;;;;;-148.88;100.00;-17125.47;4973593;28;20587;-73
2023/10/06 05:34:40;;;;;;;13.13;7.53;;;;;;;-148.88;100.00;-17125.47;4972241;28;20022;-73
2023/10/06 05:37:08;;;;;;;12.85;6.82;;;;;;;-148.88;100.00;-17125.47;4972491;28;20088;-73
2023/10/06 05:39:34;;;;;;;13.35;6.85;;;;;;;-148.88;100.00;-17125.47;4973610;28;20102;-73
2023/10/06 05:41:59;;;;;;;13.95;6.88;;;;;;;-148.88;100.00;-17125.47;4973404;28;20583;-73
2023/10/06 05:44:25;;;;;;;11.43;6.22;;;;;;;-148.88;100.00;-17125.47;4973260;28;20057;-73
2023/10/06 05:46:50;;;;;;;16.27;6.45;;;;;;;-148.88;100.00;-17125.47;4973345;28;20047;-73
2023/10/06 05:49:21;;;;;;;14.48;6.75;;;;;;;-148.88;100.00;-17125.47;4973433;28;20022;-74
2023/10/06 05:51:52;;;;;;;16.65;6.80;;;;;;;-148.88;100.00;-17125.47;4973242;28;20022;-73
2023/10/06 05:54:21;;;;;;;12.18;6.03;;;;;;;-148.88;100.00;-17125.47;4973681;28;20023;-73
2023/10/06 05:56:53;;;;;;;12.50;6.25;;;;;;;-148.88;100.00;-17125.47;4973259;28;20026;-73
2023/10/06 05:59:19;;;;;;;15.93;6.07;;;;;;;-148.88;100.00;-17125.47;4971959;28;20023;-74
2023/10/06 06:01:46;;;;;;;14.45;6.55;;;;;;;-148.88;100.00;-17125.47;4973168;28;20089;-73
2023/10/06 06:04:12;;;;;;;14.40;6.53;;;;;;;-148.88;100.00;-17125.47;4971776;28;20023;-73
2023/10/06 06:06:38;;;;;;;10.68;5.80;;;;;;;-148.88;100.00;-17125.47;4973159;28;20019;-73
2023/10/06 06:09:14;;;;;;;12.23;6.25;;;;;;;-148.88;100.00;-17125.47;4973031;28;20376;-73
2023/10/06 06:11:39;;;;;;;12.48;6.38;;;;;;;-148.88;100.00;-17125.47;4972601;28;20590;-73
2023/10/06 06:14:05;;;;;;;10.85;5.40;;;;;;;-148.88;100.00;-17125.47;4973024;28;20113;-73
2023/10/06 06:16:31;;;;;;;17.17;6.38;;;;;;;-148.88;100.00;-17125.47;4971558;28;20079;-73
2023/10/06 06:18:57;;;;;;;13.48;5.80;;;;;;;-148.88;100.00;-17125.47;4971591;28;20041;-73
2023/10/06 06:21:24;;;;;;;12.50;5.47;;;;;;;-148.88;100.00;-17125.47;4971840;28;20026;-74
2023/10/06 06:23:50;;;;;;;13.35;5.97;;;;;;;-148.88;100.00;-17125.47;4972893;28;20047;-73
2023/10/06 06:26:17;;;;;;;11.60;5.45;;;;;;;-148.88;100.00;-17125.47;4972817;28;20027;-73
2023/10/06 06:28:43;;;;;;;9.23;5.40;;;;;;;-148.88;100.00;-17125.47;4971595;28;20027;-73
2023/10/06 06:31:18;;;;;;;12.27;5.93;;;;;;;-148.88;100.00;-17125.47;4972967;28;20105;-73
2023/10/06 06:33:43;;;;;;;13.18;5.72;;;;;;;-148.88;100.00;-17125.47;4973262;28;20450;-73
2023/10/06 06:36:09;;;;;;;12.13;5.53;;;;;;;-148.88;100.00;-17125.47;4973122;28;20496;-73
2023/10/06 06:38:39;;;;;;;12.77;5.80;;;;;;;-148.88;100.00;-17125.47;4972783;28;20062;-74
2023/10/06 06:41:05;;;;;;;14.45;5.40;;;;;;;-148.88;100.00;-17125.47;4972840;28;20597;-73
2023/10/06 06:43:31;;;;;;;10.75;5.20;;;;;;;-148.88;100.00;-17125.47;4987717;28;20022;-73
2023/10/06 06:45:58;;;;;;;11.88;5.18;;;;;;;-148.88;100.00;-17125.47;4972722;28;20023;-73
2023/10/06 06:48:24;;;;;;;10.55;5.25;;;;;;;-148.88;100.00;-17125.47;4974937;28;20027;-73
2023/10/06 06:50:49;;;;;;;12.25;5.57;;;;;;;-148.88;100.00;-17125.47;4976278;28;20507;-73
2023/10/06 06:53:18;;;;;;;8.43;4.60;;;;;;;-148.88;100.00;-17125.47;4976366;28;20030;-73
2023/10/06 06:55:44;;;;;;;12.15;5.38;;;;;;;-148.88;100.00;-17125.47;4976075;28;20046;-73
2023/10/06 06:58:16;;;;;;;8.88;4.80;;;;;;;-148.88;100.00;-17125.47;4976070;28;20118;-73
2023/10/06 07:00:41;;;;;;;13.75;5.95;;;;;;;-148.88;100.00;-17125.47;4976362;28;20031;-73
2023/10/06 07:03:08;;;;;;;10.05;4.93;;;;;;;-148.88;100.00;-17125.47;4974833;28;20081;-73
2023/10/06 07:05:36;;;;;;;13.68;4.82;;;;;;;-148.88;100.00;-17125.47;4974952;28;20029;-73
2023/10/06 07:08:04;;;;;;;11.57;4.85;;;;;;;-148.88;100.00;-17125.47;4976066;28;20459;-73
2023/10/06 07:10:30;;;;;;;8.63;4.65;;;;;;;-148.88;100.00;-17125.47;4975871;28;20026;-73
2023/10/06 07:12:59;;;;;;;13.18;4.85;;;;;;;-148.88;100.00;-17125.47;4976098;28;20567;-74
2023/10/06 07:15:27;;;;;;;11.18;4.07;;;;;;;-148.88;100.00;-17125.47;4974922;28;20471;-74
2023/10/06 07:17:55;;;;;;;10.00;4.60;;;;;;;-148.88;100.00;-17125.47;4976168;28;20407;-73
2023/10/06 07:20:26;;;;;;;9.95;4.70;;;;;;;-148.88;100.00;-17125.47;4976003;28;20035;-73
2023/10/06 07:22:55;;;;;;;7.32;4.07;;;;;;;-148.88;100.00;-17125.47;4974641;28;20026;-74
2023/10/06 07:25:24;;;;;;;10.07;4.53;;;;;;;-148.88;100.00;-17125.47;4975807;28;20027;-73
2023/10/06 07:27:52;;;;;;;10.68;4.22;;;;;;;-148.88;100.00;-17125.47;4975758;28;20138;-73
2023/10/06 07:30:22;;;;;;;8.07;3.85;;;;;;;-148.88;100.00;-17125.47;4975534;28;20030;-73
2023/10/06 07:32:47;;;;;;;8.55;3.78;;;;;;;-148.88;100.00;-17125.47;4976004;28;20026;-73
2023/10/06 07:35:14;;;;;;;11.90;4.38;;;;;;;-148.88;100.00;-17125.47;4975494;28;20030;-73
2023/10/06 07:37:44;;;;;;;9.02;4.15;;;;;;;-148.88;100.00;-17125.47;4974063;28;20487;-73
2023/10/06 07:40:13;;;;;;;9.95;4.25;;;;;;;-148.88;100.00;-17125.47;4975564;28;20158;-73
2023/10/06 07:42:50;;;;;;;10.13;4.07;;;;;;;-148.88;100.00;-17125.47;4975469;28;20075;-74
2023/10/06 07:45:16;;;;;;;9.77;3.97;;;;;;;-148.88;100.00;-17125.47;4975819;28;20031;-73
2023/10/06 07:47:42;;;;;;;12.80;4.40;;;;;;;-148.88;100.00;-17125.47;4975976;28;20031;-73
2023/10/06 07:50:09;;;;;;;9.63;4.03;;;;;;;-148.88;100.00;-17125.47;4974794;28;20023;-74
2023/10/06 07:52:38;;;;;;;9.18;4.00;;;;;;;-148.88;100.00;-17125.47;4974488;28;20019;-74
2023/10/06 07:55:09;;;;;;;8.00;4.07;;;;;;;-148.88;100.00;-17125.47;4975422;28;20030;-74
2023/10/06 07:57:41;;;;;;;11.32;4.43;;;;;;;-148.88;100.00;-17125.47;4975316;28;20055;-73
2023/10/06 08:00:11;;;;;;;9.60;3.95;;;;;;;-148.88;100.00;-17125.47;4973866;28;20073;-73
2023/10/06 08:02:39;;;;;;;10.85;3.80;;;;;;;-148.88;100.00;-17125.47;4973732;28;20034;-73
2023/10/06 08:05:11;;;;;;;9.35;4.13;;;;;;;-148.88;100.00;-17125.47;4973784;28;20089;-73
2023/10/06 08:07:38;;;;;;;12.18;4.20;;;;;;;-148.88;100.00;-17125.47;4973726;28;20088;-73
2023/10/06 08:10:11;;;;;;;10.77;3.83;;;;;;;-148.88;100.00;-17125.47;4974777;28;20018;-73
2023/10/06 08:12:37;;;;;;;8.02;3.50;;;;;;;-148.88;100.00;-17125.47;4974866;28;20547;-73
2023/10/06 08:15:09;;;;;;;7.10;3.28;;;;;;;-148.88;100.00;-17125.47;4974970;28;20109;-74
2023/10/06 08:17:35;;;;;;;9.27;3.70;;;;;;;-148.88;100.00;-17125.47;4974889;28;20018;-74
2023/10/06 08:20:00;;;;;;;10.50;3.63;;;;;;;-148.88;100.00;-17125.47;4974955;28;20508;-73
2023/10/06 08:22:26;;;;;;;11.45;3.78;;;;;;;-148.88;100.00;-17125.47;4975119;28;20452;-73
2023/10/06 08:24:54;;;;;;;8.25;3.63;;;;;;;-148.88;100.00;-17125.47;4975212;28;20054;-74
2023/10/06 08:27:23;;;;;;;10.32;4.43;;;;;;;-148.88;100.00;-17125.47;4975132;28;20019;-74
2023/10/06 08:29:51;;;;;;;7.95;3.42;;;;;;;-148.88;100.00;-17125.47;4974751;28;20054;-74
2023/10/06 08:32:17;;;;;;;8.65;3.40;;;;;;;-148.88;100.00;-17125.47;4973284;28;20045;-73
2023/10/06 08:34:46;;;;;;;10.15;3.40;;;;;;;-148.88;100.00;-17125.47;4974637;28;20018;-73
2023/10/06 08:37:11;;;;;;;9.20;3.75;;;;;;;-148.88;100.00;-17125.47;4974332;28;20022;-74
2023/10/06 08:39:41;;;;;;;13.73;4.07;;;;;;;-148.88;100.00;-17125.47;4974484;28;20023;-74
2023/10/06 08:42:10;;;;;;;11.60;3.42;;;;;;;-148.88;100.00;-17125.47;4974512;28;20114;-73
2023/10/06 08:44:40;;;;;;;9.52;3.55;;;;;;;-148.88;100.00;-17125.47;4974234;28;20110;-74
2023/10/06 08:47:09;;;;;;;7.53;3.17;;;;;;;-148.88;100.00;-17125.47;4973925;28;20023;-74
2023/10/06 08:49:35;;;;;;;8.05;2.97;;;;;;;-148.88;100.00;-17125.47;4973715;28;20407;-74
2023/10/06 08:52:04;;;;;;;9.75;3.65;;;;;;;-148.88;100.00;-17125.47;4973860;28;20081;-74
2023/10/06 08:54:30;;;;;;;8.77;3.10;;;;;;;-148.88;100.00;-17125.47;4972638;28;20027;-74
2023/10/06 08:56:55;;;;;;;6.60;2.95;;;;;;;-148.88;100.00;-17125.47;4974231;28;20033;-73
2023/10/06 08:59:21;;;;;;;6.18;2.88;;;;;;;-148.88;100.00;-17125.47;4974400;28;20038;-74
2023/10/06 09:01:46;;;;;;;8.82;3.00;;;;;;;-148.88;100.00;-17125.47;4974675;28;20478;-74
2023/10/06 09:04:11;;;;;;;7.65;3.10;;;;;;;-148.88;100.00;-17125.47;4974166;28;20081;-74
2023/10/06 09:07:12;;;;;;;10.93;2.97;;;;;;;-148.88;100.00;-17125.47;4974054;28;20027;-74
2023/10/06 09:09:40;;;;;;;9.02;3.10;;;;;;;-148.88;100.00;-17125.47;4973657;28;20019;-74
2023/10/06 09:12:07;;;;;;;6.05;2.95;;;;;;;-148.88;98.34;-17125.47;4971900;28;20055;-74
2023/10/06 09:14:33;;;;;;;8.55;2.70;;;;;;;-148.88;97.63;-17125.47;4972171;28;20031;-74
2023/10/06 09:17:01;;;;;;;6.78;2.78;;;;;;;-148.88;98.49;-17125.47;4973394;28;20018;-74
2023/10/06 09:19:46;;;;;;;7.25;2.85;;;;;;;-148.88;97.86;-17125.47;5007948;23;20041;-83
2023/10/06 09:22:12;;;;;;;9.55;2.95;;;;;;;-148.88;98.07;-17125.47;5032409;28;20124;-81
2023/10/06 09:24:39;;;;;;;6.70;2.80;;;;;;;-148.88;96.91;-17125.47;5032861;28;20457;-84
2023/10/06 09:27:28;;;;;;;8.13;2.90;;;;;;;-148.88;97.37;-17125.47;5031381;28;20056;-84
2023/10/06 09:30:01;;;;;;;7.55;2.95;;;;;;;-148.88;97.08;-17125.47;5033345;28;20017;-81
2023/10/06 09:32:26;;;;;;;7.15;2.90;;;;;;;-148.88;96.44;-17125.47;5056748;23;20049;-85
2023/10/06 09:34:53;;;;;;;6.80;2.70;;;;;;;-148.88;95.80;-17125.47;5033787;28;20022;-86
2023/10/06 09:37:22;;;;;;;7.38;2.80;;;;;;;-148.88;93.17;-17125.47;5032888;28;20501;-88
2023/10/06 09:40:18;;;;;;;6.82;2.90;;;;;;;-148.88;92.50;-17125.47;5034096;28;20025;-87
2023/10/06 09:42:46;;;;;;;8.35;3.22;;;;;;;-148.88;92.82;-17125.47;5033668;28;20116;-86
2023/10/06 09:45:15;;;;;;;9.15;3.10;;;;;;;-148.88;90.75;-17125.47;5034429;28;20048;-83
2023/10/06 09:47:50;;;;;;;5.97;2.65;;;;;;;-148.88;92.43;-17125.47;5032574;28;20097;-85
2023/10/06 09:50:20;;;;;;;10.43;2.90;;;;;;;-148.88;93.47;-17125.47;5034144;28;20398;-84
2023/10/06 09:52:49;;;;;;;8.27;3.13;;;;;;;-148.88;93.96;-17125.47;5033900;28;20026;-85
2023/10/06 09:55:21;;;;;;;6.75;2.40;;;;;;;-148.88;93.25;-17125.47;5033806;28;20026;-85
2023/10/06 09:57:48;;;;;;;8.20;3.33;;;;;;;-148.88;91.83;-17125.47;5033827;28;20022;-86
2023/10/06 10:00:19;;;;;;;7.18;2.90;;;;;;;-148.88;91.78;-17125.47;5033909;28;20093;-87
2023/10/06 10:02:47;;;;;;;8.25;3.28;;;;;;;-148.88;93.15;-17125.47;5031844;28;20060;-87
2023/10/06 10:05:20;;;;;;;8.98;3.05;;;;;;;-148.88;93.26;-17125.47;5033511;28;20073;-84
2023/10/06 10:07:48;;;;;;;8.00;3.40;;;;;;;-148.88;94.02;-17125.47;5032487;28;20022;-87
2023/10/06 10:10:16;;;;;;;8.32;3.00;;;;;;;-148.88;93.55;-17125.47;5033623;28;20033;-84
2023/10/06 10:12:54;;;;;;;7.70;3.00;;;;;;;-148.88;95.04;-17125.47;5032946;28;20485;-85
2023/10/06 10:15:44;;;;;;;8.38;3.38;;;;;;;-148.88;96.62;-17125.47;5033337;28;20071;-85
2023/10/06 10:18:25;;;;;;;6.97;2.83;;;;;;;-148.88;95.52;-17125.47;5033429;28;20029;-87
2023/10/06 10:20:52;;;;;;;8.68;3.00;;;;;;;-148.88;94.66;-17125.47;5033473;28;20059;-87
2023/10/06 10:23:17;;;;;;;8.68;3.13;;;;;;;-148.88;94.45;-17125.47;5036645;28;20029;-86
2023/10/06 10:25:44;;;;;;;11.50;3.20;;;;;;;-148.88;94.49;-17125.47;5036723;28;20058;-87
2023/10/06 10:28:19;;;;;;;7.05;2.88;;;;;;;-148.88;95.34;-17125.47;5036546;28;20097;-86
2023/10/06 10:30:51;;;;;;;8.23;2.90;;;;;;;-148.88;93.77;-17125.47;5036745;28;20021;-88
2023/10/06 10:33:24;;;;;;;9.18;3.55;;;;;;;-148.88;92.47;-17125.47;5036564;28;20021;-86
2023/10/06 10:36:20;;;;;;;7.22;2.95;;;;;;;-148.88;92.55;-17125.47;5034911;28;20025;-88
2023/10/06 10:38:57;;;;;;;8.00;3.20;;;;;;;-148.88;91.51;-17125.47;5035244;28;20079;-87
2023/10/06 10:41:27;;;;;;;9.35;2.90;;;;;;;-148.88;92.08;-17125.47;5036495;28;20049;-85
2023/10/06 10:43:53;;;;;;;7.68;2.88;;;;;;;-148.88;89.66;-17125.47;5035007;28;20021;-85
2023/10/06 10:46:37;;;;;;;7.53;3.28;;;;;;;-148.88;87.41;-17125.47;5034803;28;20379;-87
2023/10/06 10:49:03;;;;;;;8.27;3.40;;;;;;;-148.88;88.08;-17125.47;5036788;28;20041;-87
2023/10/06 10:51:33;;;;;;;10.10;3.85;;;;;;;-148.88;88.75;-17125.47;5036077;28;20025;-88
2023/10/06 10:54:01;;;;;;;6.30;3.00;;;;;;;-148.88;88.25;-17125.47;5034627;28;20025;-87
2023/10/06 10:56:39;;;;;;;6.18;2.90;;;;;;;-148.88;86.57;-17125.47;5036458;28;20489;-87
2023/10/06 10:59:05;;;;;;;6.63;2.95;;;;;;;-148.88;87.46;-17125.47;5035355;28;20028;-85
2023/10/06 11:01:38;;;;;;;7.60;3.15;;;;;;;-148.88;86.63;-17125.47;5035599;28;20035;-87
2023/10/06 11:04:18;;;;;;;6.90;3.15;;;;;;;-148.88;87.04;-17125.47;5034434;28;20022;-87
2023/10/06 11:06:50;;;;;;;6.90;2.78;;;;;;;-148.88;85.39;-17125.47;5036146;28;20072;-87